createdAt,value
2022-11-18T00:01:20.316Z,7.97
2022-11-18T00:03:48.089Z,9.18
2022-11-18T00:06:17.759Z,5.82
2022-11-18T00:08:44.974Z,14.55
2022-11-18T00:11:34.618Z,8.38
2022-11-18T00:14:19.653Z,6.85
2022-11-18T00:16:54.878Z,11.05
2022-11-18T00:19:24.663Z,5.50
2022-11-18T00:21:52.970Z,7.40
2022-11-18T00:24:20.705Z,9.20
2022-11-18T00:26:48.195Z,6.38
2022-11-18T00:29:15.859Z,9.05
2022-11-18T00:31:43.598Z,5.03
2022-11-18T00:34:15.601Z,7.25
2022-11-18T00:36:43.707Z,10.38
2022-11-18T00:39:12.536Z,9.38
2022-11-18T00:41:57.912Z,7.63
2022-11-18T00:44:24.857Z,8.75
2022-11-18T00:46:53.817Z,6.97
2022-11-18T00:49:20.947Z,9.85
2022-11-18T00:51:47.825Z,8.65
2022-11-18T00:54:14.748Z,7.20
2022-11-18T00:56:41.554Z,8.48
2022-11-18T00:59:08.493Z,9.35
2022-11-18T01:01:35.433Z,8.23
2022-11-18T01:04:03.469Z,7.70
2022-11-18T01:06:32.612Z,9.30
2022-11-18T01:08:59.521Z,4.57
2022-11-18T01:11:45.866Z,7.90
2022-11-18T01:14:12.801Z,11.10
2022-11-18T01:16:39.579Z,5.55
2022-11-18T01:19:07.717Z,5.20
2022-11-18T01:21:34.765Z,6.20
2022-11-18T01:24:01.699Z,6.32
2022-11-18T01:26:28.493Z,7.78
2022-11-18T01:29:00.302Z,6.70
2022-11-18T01:31:27.249Z,3.60
2022-11-18T01:33:54.084Z,3.58
2022-11-18T01:36:23.994Z,3.67
2022-11-18T01:38:51.765Z,5.82
2022-11-18T01:41:20.571Z,8.18
2022-11-18T01:44:32.140Z,7.47
2022-11-18T01:46:58.989Z,8.60
2022-11-18T01:49:26.065Z,6.72
2022-11-18T01:51:57.485Z,5.38
2022-11-18T01:54:28.351Z,8.23
2022-11-18T01:57:00.625Z,6.28
2022-11-18T01:59:35.908Z,8.45
2022-11-18T02:02:09.285Z,4.80
2022-11-18T02:04:36.252Z,6.82
2022-11-18T02:07:03.168Z,2.95
2022-11-18T02:09:30.546Z,7.50
2022-11-18T02:11:57.637Z,5.63
2022-11-18T02:14:28.371Z,4.43
2022-11-18T02:17:25.361Z,5.93
2022-11-18T02:20:05.821Z,5.78
2022-11-18T02:22:45.819Z,6.53
2022-11-18T02:25:52.108Z,6.47
2022-11-18T02:28:56.953Z,5.60
2022-11-18T02:31:47.178Z,4.53
2022-11-18T02:34:37.681Z,5.95
2022-11-18T02:37:05.750Z,6.32
2022-11-18T02:39:38.097Z,4.93
2022-11-18T02:42:09.372Z,8.80
2022-11-18T02:44:38.450Z,7.68
2022-11-18T02:47:08.292Z,9.55
2022-11-18T02:49:43.499Z,4.90
2022-11-18T02:52:12.446Z,6.07
2022-11-18T02:54:41.921Z,4.82
2022-11-18T02:57:09.525Z,4.50
2022-11-18T02:59:36.354Z,7.95
2022-11-18T03:02:04.616Z,3.90
2022-11-18T03:04:35.550Z,5.45
2022-11-18T03:07:11.004Z,4.95
2022-11-18T03:09:42.463Z,9.77
2022-11-18T03:12:26.442Z,6.72
2022-11-18T03:14:56.310Z,8.60
2022-11-18T03:17:55.639Z,6.47
2022-11-18T03:20:26.438Z,5.95
2022-11-18T03:23:06.178Z,7.75
2022-11-18T03:25:51.528Z,9.13
2022-11-18T03:28:43.040Z,8.20
2022-11-18T03:31:38.356Z,6.32
2022-11-18T03:34:14.920Z,8.02
2022-11-18T03:36:51.641Z,4.95
2022-11-18T03:39:21.611Z,10.80
2022-11-18T03:42:01.026Z,7.35
2022-11-18T03:44:34.801Z,7.40
2022-11-18T03:47:09.624Z,7.95
2022-11-18T03:49:43.253Z,5.05
2022-11-18T03:52:22.178Z,6.93
2022-11-18T03:54:54.512Z,7.80
2022-11-18T03:57:31.990Z,9.35
2022-11-18T04:00:10.995Z,9.93
2022-11-18T04:02:38.964Z,6.35
2022-11-18T04:05:12.333Z,8.57
2022-11-18T04:07:54.602Z,8.80
2022-11-18T04:10:33.406Z,6.30
2022-11-18T04:13:28.497Z,11.23
2022-11-18T04:15:55.885Z,8.05
2022-11-18T04:18:23.009Z,9.10
2022-11-18T04:20:51.073Z,5.30
2022-11-18T04:23:17.947Z,6.13
2022-11-18T04:25:45.463Z,5.97
2022-11-18T04:28:12.528Z,6.78
2022-11-18T04:30:39.602Z,6.72
2022-11-18T04:33:07.679Z,8.63
2022-11-18T04:35:34.549Z,5.75
2022-11-18T04:38:01.320Z,10.13
2022-11-18T04:40:29.282Z,6.80
2022-11-18T04:42:57.464Z,8.80
2022-11-18T04:45:24.397Z,9.15
2022-11-18T04:47:53.212Z,8.10
2022-11-18T04:50:20.069Z,9.98
2022-11-18T04:52:46.927Z,8.07
2022-11-18T04:55:13.825Z,7.43
2022-11-18T04:57:40.852Z,7.07
2022-11-18T05:00:09.422Z,6.72
2022-11-18T05:02:36.341Z,12.32
2022-11-18T05:05:03.428Z,8.25
2022-11-18T05:07:30.284Z,7.88
2022-11-18T05:09:57.326Z,11.68
2022-11-18T05:12:42.704Z,12.13
2022-11-18T05:15:09.619Z,9.35
2022-11-18T05:17:36.436Z,8.15
2022-11-18T05:20:03.557Z,8.65
2022-11-18T05:22:30.357Z,10.95
2022-11-18T05:24:57.169Z,9.73
2022-11-18T05:27:29.072Z,5.25
2022-11-18T05:29:57.362Z,8.07
2022-11-18T05:32:24.150Z,8.55
2022-11-18T05:34:52.447Z,10.07
2022-11-18T05:37:19.351Z,10.30
2022-11-18T05:39:46.205Z,9.55
2022-11-18T05:42:31.640Z,7.70
2022-11-18T05:44:59.096Z,6.38
2022-11-18T05:47:27.443Z,5.60
2022-11-18T05:49:54.476Z,8.27
2022-11-18T05:52:21.228Z,5.38
2022-11-18T05:54:50.898Z,6.18
2022-11-18T05:57:17.891Z,5.72
2022-11-18T05:59:44.785Z,8.10
2022-11-18T06:02:22.125Z,9.57
2022-11-18T06:05:00.871Z,11.25
2022-11-18T06:07:39.216Z,6.95
2022-11-18T06:10:07.026Z,8.82
2022-11-18T06:12:39.816Z,14.43
2022-11-18T06:15:14.928Z,9.43
2022-11-18T06:17:52.623Z,9.82
2022-11-18T06:20:20.900Z,11.07
2022-11-18T06:22:51.537Z,9.77
2022-11-18T06:25:18.880Z,9.57
2022-11-18T06:27:47.401Z,8.27
2022-11-18T06:30:16.690Z,9.13
2022-11-18T06:32:43.578Z,7.38
2022-11-18T06:35:11.850Z,8.50
2022-11-18T06:37:39.825Z,8.55
2022-11-18T06:40:07.733Z,8.25
2022-11-18T06:42:54.065Z,13.93
2022-11-18T06:45:21.082Z,8.30
2022-11-18T06:47:49.541Z,10.70
2022-11-18T06:50:16.740Z,13.23
2022-11-18T06:52:43.608Z,10.10
2022-11-18T06:55:10.570Z,8.05
2022-11-18T06:57:38.672Z,12.20
2022-11-18T07:00:06.430Z,6.60
2022-11-18T07:02:36.263Z,9.18
2022-11-18T07:05:04.499Z,11.80
2022-11-18T07:07:31.532Z,9.77
2022-11-18T07:09:58.496Z,7.68
2022-11-18T07:12:31.190Z,11.38
2022-11-18T07:15:01.170Z,6.78
2022-11-18T07:17:30.723Z,8.52
2022-11-18T07:19:59.298Z,12.98
2022-11-18T07:22:27.714Z,11.18
2022-11-18T07:24:55.580Z,6.90
2022-11-18T07:27:22.369Z,9.95
2022-11-18T07:29:49.288Z,8.18
2022-11-18T07:32:16.108Z,8.43
2022-11-18T07:34:43.348Z,8.60
2022-11-18T07:37:10.218Z,7.85
2022-11-18T07:39:37.056Z,4.82
2022-11-18T07:42:05.230Z,5.65
2022-11-18T07:44:32.250Z,8.05
2022-11-18T07:46:59.113Z,8.00
2022-11-18T07:49:27.103Z,8.85
2022-11-18T07:51:54.597Z,6.13
2022-11-18T07:54:21.622Z,8.25
2022-11-18T07:56:50.490Z,6.30
2022-11-18T07:59:17.647Z,8.88
2022-11-18T08:01:44.795Z,12.98
2022-11-18T08:04:14.098Z,15.10
2022-11-18T08:06:41.153Z,10.55
2022-11-18T08:09:09.126Z,12.48
2022-11-18T08:11:36.500Z,7.55
2022-11-18T08:14:03.690Z,7.63
2022-11-18T08:16:30.638Z,18.85
2022-11-18T08:19:00.667Z,8.57
2022-11-18T08:21:29.827Z,8.48
2022-11-18T08:23:58.713Z,15.93
2022-11-18T08:26:26.488Z,10.90
2022-11-18T08:28:54.102Z,10.20
2022-11-18T08:31:25.259Z,11.40
2022-11-18T08:34:08.072Z,9.73
2022-11-18T08:39:06.194Z,11.05
2022-11-18T08:41:35.623Z,9.88
2022-11-18T08:44:04.896Z,4.97
2022-11-18T08:46:31.780Z,12.35
2022-11-18T08:48:59.689Z,9.95
2022-11-18T08:51:27.133Z,9.18
2022-11-18T08:53:56.318Z,9.85
2022-11-18T08:56:24.797Z,12.73
2022-11-18T08:58:53.603Z,8.13
2022-11-18T09:01:20.624Z,10.70
2022-11-18T09:03:48.600Z,13.10
2022-11-18T09:06:21.660Z,14.15
2022-11-18T09:08:48.640Z,8.55
2022-11-18T09:11:18.495Z,16.30
2022-11-18T09:14:39.052Z,16.30
2022-11-18T09:16:35.535Z,10.20
2022-11-18T09:19:18.619Z,5.93
2022-11-18T09:21:49.792Z,13.80
2022-11-18T09:24:17.333Z,7.43
2022-11-18T09:26:44.529Z,8.07
2022-11-18T09:29:14.760Z,10.25
2022-11-18T09:31:42.636Z,6.78
2022-11-18T09:34:10.461Z,11.05
2022-11-18T09:36:38.326Z,6.45
2022-11-18T09:39:05.150Z,7.10
2022-11-18T09:41:45.514Z,9.77
2022-11-18T09:44:57.115Z,12.13
2022-11-18T09:47:32.693Z,10.02
2022-11-18T09:50:33.861Z,7.03
2022-11-18T09:53:23.314Z,8.60
2022-11-18T09:55:51.857Z,12.20
2022-11-18T09:58:27.445Z,14.32
2022-11-18T10:00:54.807Z,6.65
2022-11-18T10:03:33.053Z,8.48
2022-11-18T10:06:10.566Z,11.05
2022-11-18T10:08:40.271Z,12.23
2022-11-18T10:11:21.164Z,12.38
2022-11-18T10:14:01.381Z,8.52
2022-11-18T10:16:35.528Z,6.55
2022-11-18T10:19:23.023Z,5.80
2022-11-18T10:22:38.619Z,9.25
2022-11-18T10:25:16.256Z,13.02
2022-11-18T10:27:46.211Z,5.68
2022-11-18T10:30:14.331Z,8.88
2022-11-18T10:33:01.064Z,10.48
2022-11-18T10:35:35.096Z,5.97
2022-11-18T10:38:16.160Z,10.88
2022-11-18T10:40:50.458Z,11.63
2022-11-18T10:43:50.322Z,5.32
2022-11-18T10:46:26.013Z,9.13
2022-11-18T10:49:08.383Z,5.18
2022-11-18T10:51:36.863Z,9.93
2022-11-18T10:54:22.528Z,5.20
2022-11-18T10:57:11.397Z,10.45
2022-11-18T10:59:57.890Z,13.63
2022-11-18T11:02:34.451Z,8.63
2022-11-18T11:05:15.325Z,10.27
2022-11-18T11:07:43.791Z,5.32
2022-11-18T11:10:12.821Z,9.40
2022-11-18T11:12:47.680Z,4.40
2022-11-18T11:15:24.896Z,8.38
2022-11-18T11:18:24.646Z,7.57
2022-11-18T11:20:52.810Z,6.82
2022-11-18T11:23:23.638Z,16.63
2022-11-18T11:29:30.413Z,6.85
2022-11-18T11:32:24.337Z,5.25
2022-11-18T11:35:22.079Z,6.35
2022-11-18T11:37:58.555Z,8.50
2022-11-18T11:40:29.618Z,8.20
2022-11-18T11:43:34.427Z,7.35
2022-11-18T11:46:04.128Z,8.32
2022-11-18T11:48:58.802Z,6.65
2022-11-18T11:51:34.348Z,8.88
2022-11-18T11:54:25.554Z,6.75
2022-11-18T11:57:10.851Z,12.55
2022-11-18T11:59:50.125Z,7.00
2022-11-18T12:02:23.266Z,8.38
2022-11-18T12:04:55.524Z,6.95
2022-11-18T12:07:26.536Z,9.55
2022-11-18T12:10:23.759Z,8.98
2022-11-18T12:13:13.404Z,18.52
2022-11-18T12:16:08.397Z,6.72
2022-11-18T12:19:01.142Z,6.55
2022-11-18T12:21:46.385Z,13.73
2022-11-18T12:24:39.591Z,14.57
2022-11-18T12:27:09.195Z,9.90
2022-11-18T12:29:51.064Z,9.45
2022-11-18T12:32:27.725Z,9.55
2022-11-18T12:35:04.509Z,9.27
2022-11-18T12:37:51.505Z,11.35
2022-11-18T12:40:36.606Z,8.60
2022-11-18T12:43:31.837Z,8.35
2022-11-18T12:45:59.876Z,7.10
2022-11-18T12:48:38.846Z,7.78
2022-11-18T12:51:15.161Z,5.53
2022-11-18T12:53:46.284Z,10.55
2022-11-18T12:56:17.024Z,11.65
2022-11-18T12:58:49.122Z,9.35
2022-11-18T13:01:22.962Z,3.88
2022-11-18T13:03:51.122Z,8.10
2022-11-18T13:06:25.297Z,10.80
2022-11-18T13:09:14.804Z,13.45
2022-11-18T13:11:53.942Z,5.68
2022-11-18T13:14:52.995Z,12.48
2022-11-18T13:17:52.288Z,12.18
2022-11-18T13:20:31.396Z,13.40
2022-11-18T13:23:23.100Z,13.85
2022-11-18T13:25:50.917Z,11.20
2022-11-18T13:28:56.925Z,7.63
2022-11-18T13:31:50.800Z,10.63
2022-11-18T13:34:26.320Z,12.15
2022-11-18T13:36:55.277Z,6.35
2022-11-18T13:39:31.356Z,11.15
2022-11-18T13:42:05.424Z,10.10
2022-11-18T13:44:37.412Z,10.27
2022-11-18T13:47:11.396Z,10.05
2022-11-18T13:50:04.640Z,9.27
2022-11-18T13:52:42.776Z,12.85
2022-11-18T13:55:20.011Z,12.45
2022-11-18T13:59:16.976Z,6.68
2022-11-18T14:01:47.213Z,10.77
2022-11-18T14:04:27.520Z,9.10
2022-11-18T14:07:16.776Z,7.60
2022-11-18T14:10:02.850Z,8.30
2022-11-18T14:12:32.719Z,9.90
2022-11-18T14:15:32.689Z,9.70
2022-11-18T14:18:01.694Z,10.48
2022-11-18T14:20:30.679Z,8.43
2022-11-18T14:23:01.098Z,9.32
2022-11-18T14:25:33.556Z,9.02
2022-11-18T14:28:11.995Z,6.50
2022-11-18T14:30:55.817Z,12.48
2022-11-18T14:33:24.861Z,9.25
2022-11-18T14:36:03.430Z,10.65
2022-11-18T14:41:48.208Z,13.15
2022-11-18T14:44:16.505Z,8.87
2022-11-18T14:46:46.977Z,13.15
2022-11-18T14:49:18.513Z,16.45
2022-11-18T14:51:46.915Z,13.43
2022-11-18T14:54:22.311Z,13.75
2022-11-18T14:56:56.956Z,12.25
2022-11-18T14:59:24.305Z,10.80
2022-11-18T15:01:52.267Z,10.90
2022-11-18T15:04:21.943Z,11.02
2022-11-18T15:06:49.328Z,12.32
2022-11-18T15:09:17.218Z,12.23
2022-11-18T15:11:45.517Z,10.63
2022-11-18T15:14:13.496Z,11.35
2022-11-18T15:16:41.437Z,16.27
2022-11-18T15:19:15.202Z,13.27
2022-11-18T15:21:43.179Z,11.13
2022-11-18T15:24:11.124Z,9.30
2022-11-18T15:26:43.809Z,12.65
2022-11-18T15:31:55.785Z,11.50
2022-11-18T15:34:25.183Z,10.48
2022-11-18T15:36:52.280Z,12.10
2022-11-18T15:39:22.689Z,16.75
2022-11-18T15:41:51.588Z,13.63
2022-11-18T15:44:19.076Z,13.93
2022-11-18T15:46:48.019Z,10.35
2022-11-18T15:49:17.631Z,10.93
2022-11-18T15:51:45.546Z,12.05
2022-11-18T15:54:13.486Z,7.90
2022-11-18T15:56:43.592Z,8.48
2022-11-18T15:59:12.861Z,13.65
2022-11-18T16:01:46.486Z,9.15
2022-11-18T16:04:16.760Z,10.90
2022-11-18T16:06:44.307Z,13.75
2022-11-18T16:09:13.861Z,12.93
2022-11-18T16:12:00.812Z,11.05
2022-11-18T16:14:28.824Z,11.95
2022-11-18T16:16:56.721Z,15.23
2022-11-18T16:19:26.744Z,11.40
2022-11-18T16:21:56.992Z,9.05
2022-11-18T16:24:29.091Z,9.88
2022-11-18T16:26:57.553Z,9.70
2022-11-18T16:29:25.652Z,10.63
2022-11-18T16:31:54.429Z,8.93
2022-11-18T16:34:25.723Z,9.88
2022-11-18T16:36:54.718Z,13.32
2022-11-18T16:39:25.588Z,8.52
2022-11-18T16:42:07.394Z,9.82
2022-11-18T16:44:36.166Z,8.10
2022-11-18T16:47:06.465Z,10.30
2022-11-18T16:49:39.113Z,9.32
2022-11-18T16:52:08.074Z,14.27
2022-11-18T16:54:41.094Z,10.38
2022-11-18T16:57:11.702Z,7.75
2022-11-18T16:59:38.549Z,7.47
2022-11-18T17:02:07.005Z,10.45
2022-11-18T17:04:37.091Z,8.75
2022-11-18T17:07:04.624Z,10.20
2022-11-18T17:09:32.467Z,10.88
2022-11-18T17:11:59.932Z,11.65
2022-11-18T17:14:29.980Z,9.02
2022-11-18T17:16:59.796Z,11.57
2022-11-18T17:19:26.973Z,14.15
2022-11-18T17:21:55.785Z,11.80
2022-11-18T17:24:23.898Z,7.43
2022-11-18T17:26:52.157Z,11.85
2022-11-18T17:29:23.224Z,13.18
2022-11-18T17:31:51.219Z,8.98
2022-11-18T17:34:19.128Z,10.27
2022-11-18T17:36:48.792Z,8.52
2022-11-18T17:39:17.487Z,8.55
2022-11-18T17:42:06.320Z,10.82
2022-11-18T17:44:34.177Z,8.50
2022-11-18T17:47:02.869Z,10.60
2022-11-18T17:49:32.201Z,7.22
2022-11-18T17:52:00.359Z,12.52
2022-11-18T17:54:28.387Z,8.68
2022-11-18T17:56:56.290Z,13.77
2022-11-18T17:59:23.224Z,10.25
2022-11-18T18:01:55.698Z,9.90
2022-11-18T18:04:29.158Z,9.85
2022-11-18T18:06:57.237Z,9.80
2022-11-18T18:09:31.087Z,12.68
2022-11-18T18:11:59.672Z,9.07
2022-11-18T18:14:26.544Z,9.05
2022-11-18T18:16:54.510Z,8.93
2022-11-18T18:19:23.840Z,12.50
2022-11-18T18:21:51.126Z,12.27
2022-11-18T18:24:20.457Z,8.77
2022-11-18T18:26:47.782Z,10.60
2022-11-18T18:29:20.167Z,16.73
2022-11-18T18:31:47.328Z,14.60
2022-11-18T18:34:14.213Z,13.48
2022-11-18T18:36:42.514Z,8.20
2022-11-18T18:39:11.609Z,12.93
2022-11-18T18:41:39.585Z,12.63
2022-11-18T18:44:06.779Z,9.77
2022-11-18T18:46:36.709Z,10.20
2022-11-18T18:49:06.480Z,13.00
2022-11-18T18:51:44.318Z,11.20
2022-11-18T18:54:13.319Z,16.58
2022-11-18T18:56:40.711Z,15.57
2022-11-18T18:59:09.308Z,11.23
2022-11-18T19:01:38.168Z,11.15
2022-11-18T19:04:07.208Z,13.25
2022-11-18T19:09:27.778Z,19.38
2022-11-18T19:12:15.742Z,13.10
2022-11-18T19:14:43.747Z,11.20
2022-11-18T19:17:13.012Z,11.68
2022-11-18T19:20:01.437Z,12.70
2022-11-18T19:22:33.163Z,13.30
2022-11-18T19:25:01.549Z,12.95
2022-11-18T19:27:29.071Z,15.25
2022-11-18T19:29:56.184Z,12.98
2022-11-18T19:32:23.580Z,15.48
2022-11-18T19:34:51.642Z,14.10
2022-11-18T19:37:19.593Z,11.05
2022-11-18T19:39:49.570Z,18.05
2022-11-18T19:42:17.505Z,17.27
2022-11-18T19:44:46.496Z,18.92
2022-11-18T19:47:16.089Z,12.43
2022-11-18T19:49:45.130Z,14.38
2022-11-18T19:52:13.088Z,20.42
2022-11-18T19:54:42.149Z,13.02
2022-11-18T19:57:09.148Z,15.80
2022-11-18T19:59:36.111Z,15.90
2022-11-18T20:05:07.333Z,13.18
2022-11-18T20:07:36.006Z,14.20
2022-11-18T20:10:06.782Z,14.75
2022-11-18T20:12:35.410Z,12.98
2022-11-18T20:15:03.478Z,14.88
2022-11-18T20:17:30.535Z,18.83
2022-11-18T20:19:58.791Z,16.38
2022-11-18T20:22:28.825Z,15.50
2022-11-18T20:24:56.836Z,16.58
2022-11-18T20:27:23.885Z,16.90
2022-11-18T20:29:50.971Z,18.15
2022-11-18T20:32:18.975Z,18.33
2022-11-18T20:34:47.935Z,16.02
2022-11-18T20:37:18.070Z,17.35
2022-11-18T20:39:45.452Z,20.08
2022-11-18T20:42:33.268Z,17.35
2022-11-18T20:45:00.480Z,19.00
2022-11-18T20:47:27.535Z,16.05
2022-11-18T20:50:00.329Z,16.38
2022-11-18T20:52:28.440Z,18.73
2022-11-18T20:54:55.284Z,17.48
2022-11-18T20:57:23.219Z,17.20
2022-11-18T20:59:50.149Z,19.17
2022-11-18T21:02:17.231Z,19.80
2022-11-18T21:04:47.437Z,19.77
2022-11-18T21:07:16.134Z,21.48
2022-11-18T21:09:43.017Z,18.63
2022-11-18T21:12:11.124Z,21.65
2022-11-18T21:14:38.351Z,17.35
2022-11-18T21:17:05.416Z,23.42
2022-11-18T21:19:34.042Z,21.73
2022-11-18T21:22:02.149Z,22.38
2022-11-18T21:24:35.408Z,17.75
2022-11-18T21:27:04.871Z,18.75
2022-11-18T21:29:33.146Z,21.33
2022-11-18T21:32:04.187Z,21.20
2022-11-18T21:34:32.222Z,19.65
2022-11-18T21:36:59.226Z,22.80
2022-11-18T21:39:27.235Z,26.50
2022-11-18T21:42:01.351Z,23.98
2022-11-18T21:44:28.882Z,26.63
2022-11-18T21:46:56.305Z,25.13
2022-11-18T21:49:23.882Z,24.42
2022-11-18T21:51:52.126Z,30.13
2022-11-18T21:54:20.129Z,25.35
2022-11-18T21:56:49.087Z,25.95
2022-11-18T22:01:56.945Z,23.67
2022-11-18T22:04:42.317Z,26.30
2022-11-18T22:07:10.593Z,27.58
2022-11-18T22:09:37.451Z,24.02
2022-11-18T22:12:08.211Z,26.02
2022-11-18T22:14:36.452Z,25.77
2022-11-18T22:17:05.122Z,30.55
2022-11-18T22:19:32.096Z,40.40
2022-11-18T22:21:59.008Z,28.90
2022-11-18T22:24:27.179Z,29.90
2022-11-18T22:26:55.057Z,25.70
2022-11-18T22:29:24.275Z,32.00
2022-11-18T22:31:53.338Z,32.88
2022-11-18T22:34:21.856Z,28.80
2022-11-18T22:36:48.751Z,29.45
2022-11-18T22:39:19.723Z,32.97
2022-11-18T22:42:05.393Z,29.83
2022-11-18T22:44:32.389Z,29.88
2022-11-18T22:46:59.387Z,33.05
2022-11-18T22:49:27.463Z,29.40
2022-11-18T22:51:54.478Z,30.63
2022-11-18T22:57:08.847Z,29.42
2022-11-18T22:59:36.100Z,29.00
2022-11-18T23:02:03.208Z,27.65
2022-11-18T23:04:30.209Z,32.15
2022-11-18T23:06:57.214Z,32.03
2022-11-18T23:09:24.051Z,31.85
2022-11-18T23:12:09.749Z,32.20
2022-11-18T23:14:36.669Z,28.48
2022-11-18T23:17:05.308Z,30.33
2022-11-18T23:19:32.207Z,30.00
2022-11-18T23:21:59.209Z,27.98
2022-11-18T23:24:26.193Z,26.55
2022-11-18T23:26:53.045Z,28.70
2022-11-18T23:29:20.590Z,26.35
2022-11-18T23:31:48.829Z,31.77
2022-11-18T23:34:16.473Z,29.85
2022-11-18T23:36:43.752Z,33.53
2022-11-18T23:39:10.829Z,30.02
2022-11-18T23:41:37.924Z,27.02
2022-11-18T23:44:05.464Z,29.17
2022-11-18T23:46:33.147Z,27.80
2022-11-18T23:49:02.273Z,29.80
2022-11-18T23:51:29.208Z,29.55
2022-11-18T23:53:57.548Z,27.83
2022-11-18T23:56:27.114Z,28.35
2022-11-18T23:58:56.068Z,29.27
